Grandview, Tennessee
Current Conditions -  °F | °C
As of 9:53 AM on Saturday 22 Nov 2014 (Local Time) from KCSV Reporting Station
Clear Clear  
Wind Chill:   Ceiling: Unl
Heat Index:   Visibility: 10mi
Dew Point: -2°   Wind: 5mph
Humidity: 44%   Direction: NA
Pressure: 30.4"   Gusts: 18mph
Location:  35.74°N, 84.84°W
Report Text: KCSV 221453Z AUTO VRB04G16KT 10SM CLR 09/M02 A3040 RMK AO2 SLP299 T00941022 50002
Loading
Personal Weather Stations






























Interactive Weather Map New forecast layout! Learn more

10-Day Weather Forecast

Advertisements
Track Severe Weather on mobile